sensor_id;sensor_type;location;lat;lon;timestamp;temperature;humidity
12015;DHT22;6066;48.138;16.402;2022-08-19T00:01:50;22.90;99.90
12015;DHT22;6066;48.138;16.402;2022-08-19T00:04:19;22.90;99.90
12015;DHT22;6066;48.138;16.402;2022-08-19T00:06:46;22.90;99.90
12015;DHT22;6066;48.138;16.402;2022-08-19T00:09:16;22.90;99.90
12015;DHT22;6066;48.138;16.402;2022-08-19T00:11:43;22.90;99.90
12015;DHT22;6066;48.138;16.402;2022-08-19T00:14:10;22.90;99.90
12015;DHT22;6066;48.138;16.402;2022-08-19T00:16:39;22.90;99.90
12015;DHT22;6066;48.138;16.402;2022-08-19T00:19:06;22.80;99.90
12015;DHT22;6066;48.138;16.402;2022-08-19T00:21:35;22.80;99.90
12015;DHT22;6066;48.138;16.402;2022-08-19T00:24:03;22.70;99.90
12015;DHT22;6066;48.138;16.402;2022-08-19T00:26:30;22.70;99.90
12015;DHT22;6066;48.138;16.402;2022-08-19T00:28:57;22.60;99.90
12015;DHT22;6066;48.138;16.402;2022-08-19T00:31:25;22.60;99.90
12015;DHT22;6066;48.138;16.402;2022-08-19T00:33:53;22.60;99.90
12015;DHT22;6066;48.138;16.402;2022-08-19T00:36:20;22.60;99.90
12015;DHT22;6066;48.138;16.402;2022-08-19T00:38:48;22.50;99.90
12015;DHT22;6066;48.138;16.402;2022-08-19T00:41:17;22.40;99.90
12015;DHT22;6066;48.138;16.402;2022-08-19T00:43:56;22.40;99.90
12015;DHT22;6066;48.138;16.402;2022-08-19T00:46:22;22.30;99.90
12015;DHT22;6066;48.138;16.402;2022-08-19T00:48:49;22.30;99.90
12015;DHT22;6066;48.138;16.402;2022-08-19T00:51:16;22.30;99.90
12015;DHT22;6066;48.138;16.402;2022-08-19T00:53:42;22.20;99.90
12015;DHT22;6066;48.138;16.402;2022-08-19T00:56:10;22.20;99.90
12015;DHT22;6066;48.138;16.402;2022-08-19T00:58:37;22.20;99.90
12015;DHT22;6066;48.138;16.402;2022-08-19T01:01:05;22.10;99.90
12015;DHT22;6066;48.138;16.402;2022-08-19T01:03:33;22.10;99.90
12015;DHT22;6066;48.138;16.402;2022-08-19T01:05:59;22.10;99.90
12015;DHT22;6066;48.138;16.402;2022-08-19T01:08:26;22.10;99.90
12015;DHT22;6066;48.138;16.402;2022-08-19T01:10:53;22.10;99.90
12015;DHT22;6066;48.138;16.402;2022-08-19T01:13:23;22.00;99.90
12015;DHT22;6066;48.138;16.402;2022-08-19T01:15:51;22.00;99.90
12015;DHT22;6066;48.138;16.402;2022-08-19T01:18:18;22.00;99.90
12015;DHT22;6066;48.138;16.402;2022-08-19T01:20:45;22.00;99.90
12015;DHT22;6066;48.138;16.402;2022-08-19T01:23:14;22.00;99.90
12015;DHT22;6066;48.138;16.402;2022-08-19T01:25:42;22.00;99.90
12015;DHT22;6066;48.138;16.402;2022-08-19T01:28:14;21.90;99.90
12015;DHT22;6066;48.138;16.402;2022-08-19T01:30:41;21.90;99.90
12015;DHT22;6066;48.138;16.402;2022-08-19T01:33:09;21.90;99.90
12015;DHT22;6066;48.138;16.402;2022-08-19T01:35:36;21.90;99.90
12015;DHT22;6066;48.138;16.402;2022-08-19T01:38:03;21.90;99.90
12015;DHT22;6066;48.138;16.402;2022-08-19T01:40:35;21.80;99.90
12015;DHT22;6066;48.138;16.402;2022-08-19T01:43:03;21.80;99.90
12015;DHT22;6066;48.138;16.402;2022-08-19T01:45:31;21.70;99.90
12015;DHT22;6066;48.138;16.402;2022-08-19T01:47:59;21.60;99.90
12015;DHT22;6066;48.138;16.402;2022-08-19T01:50:26;21.60;99.90
12015;DHT22;6066;48.138;16.402;2022-08-19T01:52:52;21.60;99.90
12015;DHT22;6066;48.138;16.402;2022-08-19T01:55:20;21.50;99.90
12015;DHT22;6066;48.138;16.402;2022-08-19T01:57:52;21.50;99.90
12015;DHT22;6066;48.138;16.402;2022-08-19T02:00:20;21.50;99.90
12015;DHT22;6066;48.138;16.402;2022-08-19T02:02:47;21.50;99.90
12015;DHT22;6066;48.138;16.402;2022-08-19T02:05:14;21.50;99.90
12015;DHT22;6066;48.138;16.402;2022-08-19T02:07:45;21.50;99.90
12015;DHT22;6066;48.138;16.402;2022-08-19T02:10:14;21.50;99.90
12015;DHT22;6066;48.138;16.402;2022-08-19T02:12:41;21.60;99.90
12015;DHT22;6066;48.138;16.402;2022-08-19T02:15:09;21.60;99.90
12015;DHT22;6066;48.138;16.402;2022-08-19T02:17:36;21.70;99.90
12015;DHT22;6066;48.138;16.402;2022-08-19T02:20:03;21.80;99.90
12015;DHT22;6066;48.138;16.402;2022-08-19T02:22:31;21.80;99.90
12015;DHT22;6066;48.138;16.402;2022-08-19T02:24:58;21.90;99.90
12015;DHT22;6066;48.138;16.402;2022-08-19T02:27:25;22.10;99.90
12015;DHT22;6066;48.138;16.402;2022-08-19T02:29:52;22.20;99.90
12015;DHT22;6066;48.138;16.402;2022-08-19T02:32:20;22.30;99.90
12015;DHT22;6066;48.138;16.402;2022-08-19T02:34:47;22.40;99.90
12015;DHT22;6066;48.138;16.402;2022-08-19T02:37:13;22.60;99.90
12015;DHT22;6066;48.138;16.402;2022-08-19T02:39:54;22.70;99.90
12015;DHT22;6066;48.138;16.402;2022-08-19T02:42:21;22.80;99.90
12015;DHT22;6066;48.138;16.402;2022-08-19T02:44:47;22.90;99.90
12015;DHT22;6066;48.138;16.402;2022-08-19T02:47:14;22.90;99.90
12015;DHT22;6066;48.138;16.402;2022-08-19T02:49:42;22.80;99.90
12015;DHT22;6066;48.138;16.402;2022-08-19T02:52:09;22.80;99.90
12015;DHT22;6066;48.138;16.402;2022-08-19T02:54:36;22.70;99.90
12015;DHT22;6066;48.138;16.402;2022-08-19T02:57:03;22.70;99.90
12015;DHT22;6066;48.138;16.402;2022-08-19T02:59:30;22.60;99.90
12015;DHT22;6066;48.138;16.402;2022-08-19T03:01:57;22.60;99.90
12015;DHT22;6066;48.138;16.402;2022-08-19T03:04:24;22.50;99.90
12015;DHT22;6066;48.138;16.402;2022-08-19T03:06:52;22.60;99.90
12015;DHT22;6066;48.138;16.402;2022-08-19T03:09:19;22.50;99.90
12015;DHT22;6066;48.138;16.402;2022-08-19T03:11:46;22.50;99.90
12015;DHT22;6066;48.138;16.402;2022-08-19T03:14:13;22.40;99.90
12015;DHT22;6066;48.138;16.402;2022-08-19T03:16:40;22.40;99.90
12015;DHT22;6066;48.138;16.402;2022-08-19T03:19:07;22.40;99.90
12015;DHT22;6066;48.138;16.402;2022-08-19T03:21:34;22.40;99.90
12015;DHT22;6066;48.138;16.402;2022-08-19T03:24:03;22.40;99.90
12015;DHT22;6066;48.138;16.402;2022-08-19T03:26:30;22.30;99.90
12015;DHT22;6066;48.138;16.402;2022-08-19T03:28:57;22.30;99.90
12015;DHT22;6066;48.138;16.402;2022-08-19T03:31:26;22.20;99.90
12015;DHT22;6066;48.138;16.402;2022-08-19T03:33:52;22.20;99.90
12015;DHT22;6066;48.138;16.402;2022-08-19T03:36:20;22.00;99.90
12015;DHT22;6066;48.138;16.402;2022-08-19T03:38:48;22.00;99.90
12015;DHT22;6066;48.138;16.402;2022-08-19T03:41:18;21.90;99.90
12015;DHT22;6066;48.138;16.402;2022-08-19T03:43:45;21.80;99.90
12015;DHT22;6066;48.138;16.402;2022-08-19T03:46:16;21.80;99.90
12015;DHT22;6066;48.138;16.402;2022-08-19T03:48:43;21.70;99.90
12015;DHT22;6066;48.138;16.402;2022-08-19T03:51:15;21.70;99.90
12015;DHT22;6066;48.138;16.402;2022-08-19T03:53:42;21.70;99.90
12015;DHT22;6066;48.138;16.402;2022-08-19T03:56:09;21.70;99.90
12015;DHT22;6066;48.138;16.402;2022-08-19T03:58:37;21.70;99.90
12015;DHT22;6066;48.138;16.402;2022-08-19T04:01:06;21.80;99.90
12015;DHT22;6066;48.138;16.402;2022-08-19T04:03:33;21.80;99.90
12015;DHT22;6066;48.138;16.402;2022-08-19T04:06:09;21.80;99.90
12015;DHT22;6066;48.138;16.402;2022-08-19T04:08:36;21.90;99.90
12015;DHT22;6066;48.138;16.402;2022-08-19T04:11:05;21.90;99.90
12015;DHT22;6066;48.138;16.402;2022-08-19T04:13:33;21.90;99.90
12015;DHT22;6066;48.138;16.402;2022-08-19T04:16:01;22.00;99.90
12015;DHT22;6066;48.138;16.402;2022-08-19T04:18:28;22.00;99.90
12015;DHT22;6066;48.138;16.402;2022-08-19T04:20:56;22.10;99.90
12015;DHT22;6066;48.138;16.402;2022-08-19T04:23:23;22.10;99.90
12015;DHT22;6066;48.138;16.402;2022-08-19T04:25:50;22.20;99.90
12015;DHT22;6066;48.138;16.402;2022-08-19T04:28:18;22.20;99.90
12015;DHT22;6066;48.138;16.402;2022-08-19T04:30:46;22.30;99.90
12015;DHT22;6066;48.138;16.402;2022-08-19T04:33:17;22.40;99.90
12015;DHT22;6066;48.138;16.402;2022-08-19T04:35:45;22.40;99.90
12015;DHT22;6066;48.138;16.402;2022-08-19T04:38:12;22.50;99.90
12015;DHT22;6066;48.138;16.402;2022-08-19T04:40:39;22.60;99.90
12015;DHT22;6066;48.138;16.402;2022-08-19T04:43:24;22.70;99.90
12015;DHT22;6066;48.138;16.402;2022-08-19T04:45:50;22.80;99.90
12015;DHT22;6066;48.138;16.402;2022-08-19T04:48:19;22.90;99.90
12015;DHT22;6066;48.138;16.402;2022-08-19T04:50:51;23.00;99.90
12015;DHT22;6066;48.138;16.402;2022-08-19T04:53:23;23.00;99.90
12015;DHT22;6066;48.138;16.402;2022-08-19T04:55:49;23.10;99.90
12015;DHT22;6066;48.138;16.402;2022-08-19T04:58:17;23.10;99.90
12015;DHT22;6066;48.138;16.402;2022-08-19T05:00:43;23.10;99.90
12015;DHT22;6066;48.138;16.402;2022-08-19T05:03:10;23.20;99.90
12015;DHT22;6066;48.138;16.402;2022-08-19T05:05:39;23.20;99.90
12015;DHT22;6066;48.138;16.402;2022-08-19T05:08:06;23.20;99.90
12015;DHT22;6066;48.138;16.402;2022-08-19T05:10:34;23.20;99.90
12015;DHT22;6066;48.138;16.402;2022-08-19T05:13:01;23.30;99.90
12015;DHT22;6066;48.138;16.402;2022-08-19T05:15:28;23.30;99.90
12015;DHT22;6066;48.138;16.402;2022-08-19T05:17:54;23.40;99.90
12015;DHT22;6066;48.138;16.402;2022-08-19T05:20:40;23.50;99.90
12015;DHT22;6066;48.138;16.402;2022-08-19T05:23:24;23.50;99.90
12015;DHT22;6066;48.138;16.402;2022-08-19T05:25:51;23.60;99.90
12015;DHT22;6066;48.138;16.402;2022-08-19T05:28:18;23.70;99.90
12015;DHT22;6066;48.138;16.402;2022-08-19T05:30:45;23.70;99.90
12015;DHT22;6066;48.138;16.402;2022-08-19T05:33:13;23.70;99.90
12015;DHT22;6066;48.138;16.402;2022-08-19T05:35:41;23.80;99.90
12015;DHT22;6066;48.138;16.402;2022-08-19T05:38:09;23.80;99.90
12015;DHT22;6066;48.138;16.402;2022-08-19T05:40:37;23.80;99.90
12015;DHT22;6066;48.138;16.402;2022-08-19T05:43:04;23.80;99.90
12015;DHT22;6066;48.138;16.402;2022-08-19T05:45:31;23.80;99.90
12015;DHT22;6066;48.138;16.402;2022-08-19T05:47:58;23.80;99.90
12015;DHT22;6066;48.138;16.402;2022-08-19T05:50:24;23.80;99.90
12015;DHT22;6066;48.138;16.402;2022-08-19T05:52:53;23.80;99.90
12015;DHT22;6066;48.138;16.402;2022-08-19T05:55:19;23.80;99.90
12015;DHT22;6066;48.138;16.402;2022-08-19T05:57:47;23.80;99.90
12015;DHT22;6066;48.138;16.402;2022-08-19T06:00:14;23.90;99.90
12015;DHT22;6066;48.138;16.402;2022-08-19T06:02:41;23.90;99.90
12015;DHT22;6066;48.138;16.402;2022-08-19T06:05:08;23.90;99.90
12015;DHT22;6066;48.138;16.402;2022-08-19T06:07:36;24.00;99.90
12015;DHT22;6066;48.138;16.402;2022-08-19T06:10:05;24.00;99.90
12015;DHT22;6066;48.138;16.402;2022-08-19T06:12:33;24.00;99.90
12015;DHT22;6066;48.138;16.402;2022-08-19T06:15:01;24.10;99.90
12015;DHT22;6066;48.138;16.402;2022-08-19T06:17:29;24.10;99.90
12015;DHT22;6066;48.138;16.402;2022-08-19T06:19:56;24.20;99.90
12015;DHT22;6066;48.138;16.402;2022-08-19T06:22:23;24.20;99.90
12015;DHT22;6066;48.138;16.402;2022-08-19T06:24:50;24.20;99.90
12015;DHT22;6066;48.138;16.402;2022-08-19T06:27:21;24.20;99.90
12015;DHT22;6066;48.138;16.402;2022-08-19T06:29:48;24.30;99.90
12015;DHT22;6066;48.138;16.402;2022-08-19T06:32:17;24.30;99.90
12015;DHT22;6066;48.138;16.402;2022-08-19T06:34:44;24.30;99.90
12015;DHT22;6066;48.138;16.402;2022-08-19T06:37:10;24.30;99.90
12015;DHT22;6066;48.138;16.402;2022-08-19T06:39:39;24.40;99.90
12015;DHT22;6066;48.138;16.402;2022-08-19T06:42:06;24.40;99.90
12015;DHT22;6066;48.138;16.402;2022-08-19T06:44:38;24.50;99.90
12015;DHT22;6066;48.138;16.402;2022-08-19T06:47:08;24.50;99.90
12015;DHT22;6066;48.138;16.402;2022-08-19T06:49:35;24.50;99.90
12015;DHT22;6066;48.138;16.402;2022-08-19T06:52:02;24.60;99.90
12015;DHT22;6066;48.138;16.402;2022-08-19T06:54:29;24.60;99.90
12015;DHT22;6066;48.138;16.402;2022-08-19T06:56:56;24.60;99.90
12015;DHT22;6066;48.138;16.402;2022-08-19T06:59:23;24.70;99.90
12015;DHT22;6066;48.138;16.402;2022-08-19T07:01:54;24.70;99.90
12015;DHT22;6066;48.138;16.402;2022-08-19T07:04:22;24.80;99.90
12015;DHT22;6066;48.138;16.402;2022-08-19T07:06:56;24.70;99.90
12015;DHT22;6066;48.138;16.402;2022-08-19T07:09:23;24.80;99.90
12015;DHT22;6066;48.138;16.402;2022-08-19T07:11:50;24.90;99.90
12015;DHT22;6066;48.138;16.402;2022-08-19T07:14:19;24.90;99.90
12015;DHT22;6066;48.138;16.402;2022-08-19T07:16:47;25.00;99.90
12015;DHT22;6066;48.138;16.402;2022-08-19T07:19:16;25.10;99.90
12015;DHT22;6066;48.138;16.402;2022-08-19T07:21:42;25.10;99.90
12015;DHT22;6066;48.138;16.402;2022-08-19T07:24:09;25.10;99.90
12015;DHT22;6066;48.138;16.402;2022-08-19T07:26:38;25.20;99.90
12015;DHT22;6066;48.138;16.402;2022-08-19T07:29:05;25.30;99.90
12015;DHT22;6066;48.138;16.402;2022-08-19T07:31:32;25.40;99.90
12015;DHT22;6066;48.138;16.402;2022-08-19T07:34:02;25.50;99.90
12015;DHT22;6066;48.138;16.402;2022-08-19T07:36:33;25.60;99.90
12015;DHT22;6066;48.138;16.402;2022-08-19T07:39:03;25.80;99.90
12015;DHT22;6066;48.138;16.402;2022-08-19T07:41:30;25.90;99.90
12015;DHT22;6066;48.138;16.402;2022-08-19T07:43:57;26.00;99.90
12015;DHT22;6066;48.138;16.402;2022-08-19T07:46:29;26.10;99.90
12015;DHT22;6066;48.138;16.402;2022-08-19T07:48:56;26.20;99.90
12015;DHT22;6066;48.138;16.402;2022-08-19T07:51:23;26.30;99.90
12015;DHT22;6066;48.138;16.402;2022-08-19T07:53:54;26.40;99.90
12015;DHT22;6066;48.138;16.402;2022-08-19T07:56:21;26.50;99.90
12015;DHT22;6066;48.138;16.402;2022-08-19T07:58:49;26.70;99.90
12015;DHT22;6066;48.138;16.402;2022-08-19T08:01:17;26.90;99.90
12015;DHT22;6066;48.138;16.402;2022-08-19T08:03:44;27.10;99.90
12015;DHT22;6066;48.138;16.402;2022-08-19T08:06:29;27.20;99.90
12015;DHT22;6066;48.138;16.402;2022-08-19T08:09:15;27.30;99.90
12015;DHT22;6066;48.138;16.402;2022-08-19T08:11:47;27.40;99.90
12015;DHT22;6066;48.138;16.402;2022-08-19T08:14:15;27.50;99.90
12015;DHT22;6066;48.138;16.402;2022-08-19T08:16:42;27.60;99.90
12015;DHT22;6066;48.138;16.402;2022-08-19T08:19:11;27.60;99.90
12015;DHT22;6066;48.138;16.402;2022-08-19T08:21:38;27.60;99.90
12015;DHT22;6066;48.138;16.402;2022-08-19T08:24:05;27.60;99.90
12015;DHT22;6066;48.138;16.402;2022-08-19T08:26:33;27.60;99.90
12015;DHT22;6066;48.138;16.402;2022-08-19T08:29:00;27.70;99.90
12015;DHT22;6066;48.138;16.402;2022-08-19T08:31:27;27.80;99.90
12015;DHT22;6066;48.138;16.402;2022-08-19T08:33:53;27.90;99.90
12015;DHT22;6066;48.138;16.402;2022-08-19T08:36:20;27.90;99.90
12015;DHT22;6066;48.138;16.402;2022-08-19T08:38:47;28.00;99.90
12015;DHT22;6066;48.138;16.402;2022-08-19T08:41:17;28.20;99.90
12015;DHT22;6066;48.138;16.402;2022-08-19T08:43:49;28.30;99.90
12015;DHT22;6066;48.138;16.402;2022-08-19T08:46:18;28.40;99.90
12015;DHT22;6066;48.138;16.402;2022-08-19T08:48:49;28.40;99.90
12015;DHT22;6066;48.138;16.402;2022-08-19T08:51:20;28.40;99.90
12015;DHT22;6066;48.138;16.402;2022-08-19T08:53:49;28.40;99.90
12015;DHT22;6066;48.138;16.402;2022-08-19T08:56:17;28.40;99.90
12015;DHT22;6066;48.138;16.402;2022-08-19T08:58:48;28.30;99.90
12015;DHT22;6066;48.138;16.402;2022-08-19T09:01:17;28.30;99.90
12015;DHT22;6066;48.138;16.402;2022-08-19T09:03:44;28.40;99.90
12015;DHT22;6066;48.138;16.402;2022-08-19T09:06:12;28.50;99.90
12015;DHT22;6066;48.138;16.402;2022-08-19T09:08:44;28.60;99.90
12015;DHT22;6066;48.138;16.402;2022-08-19T09:11:13;28.70;99.90
12015;DHT22;6066;48.138;16.402;2022-08-19T09:13:43;28.90;99.90
12015;DHT22;6066;48.138;16.402;2022-08-19T09:16:14;29.00;99.90
12015;DHT22;6066;48.138;16.402;2022-08-19T09:18:43;29.20;99.90
12015;DHT22;6066;48.138;16.402;2022-08-19T09:21:11;29.30;99.90
12015;DHT22;6066;48.138;16.402;2022-08-19T09:23:38;29.30;99.90
12015;DHT22;6066;48.138;16.402;2022-08-19T09:26:08;29.40;99.90
12015;DHT22;6066;48.138;16.402;2022-08-19T09:28:35;29.60;99.90
12015;DHT22;6066;48.138;16.402;2022-08-19T09:31:02;29.60;99.90
12015;DHT22;6066;48.138;16.402;2022-08-19T09:33:30;29.60;99.90
12015;DHT22;6066;48.138;16.402;2022-08-19T09:36:01;29.60;99.80
12015;DHT22;6066;48.138;16.402;2022-08-19T09:38:29;29.60;99.90
12015;DHT22;6066;48.138;16.402;2022-08-19T09:40:55;29.80;99.90
12015;DHT22;6066;48.138;16.402;2022-08-19T09:43:22;29.90;99.60
12015;DHT22;6066;48.138;16.402;2022-08-19T09:45:52;30.20;99.60
12015;DHT22;6066;48.138;16.402;2022-08-19T09:48:18;30.60;98.90
12015;DHT22;6066;48.138;16.402;2022-08-19T09:50:47;30.80;99.10
12015;DHT22;6066;48.138;16.402;2022-08-19T09:53:15;31.10;99.60
12015;DHT22;6066;48.138;16.402;2022-08-19T09:55:42;31.20;98.90
12015;DHT22;6066;48.138;16.402;2022-08-19T09:58:09;31.30;98.50
12015;DHT22;6066;48.138;16.402;2022-08-19T10:00:39;31.40;98.60
12015;DHT22;6066;48.138;16.402;2022-08-19T10:03:05;31.60;97.10
12015;DHT22;6066;48.138;16.402;2022-08-19T10:05:32;31.70;97.30
12015;DHT22;6066;48.138;16.402;2022-08-19T10:08:17;31.80;94.60
12015;DHT22;6066;48.138;16.402;2022-08-19T10:10:44;31.70;95.90
12015;DHT22;6066;48.138;16.402;2022-08-19T10:13:11;31.60;95.80
12015;DHT22;6066;48.138;16.402;2022-08-19T10:15:40;31.50;95.60
12015;DHT22;6066;48.138;16.402;2022-08-19T10:18:07;31.30;95.40
12015;DHT22;6066;48.138;16.402;2022-08-19T10:20:34;31.10;96.10
12015;DHT22;6066;48.138;16.402;2022-08-19T10:23:04;31.00;96.20
12015;DHT22;6066;48.138;16.402;2022-08-19T10:25:33;31.00;96.60
12015;DHT22;6066;48.138;16.402;2022-08-19T10:28:00;30.90;97.20
12015;DHT22;6066;48.138;16.402;2022-08-19T10:30:28;30.70;97.30
12015;DHT22;6066;48.138;16.402;2022-08-19T10:32:55;30.50;97.40
12015;DHT22;6066;48.138;16.402;2022-08-19T10:35:22;30.30;96.00
12015;DHT22;6066;48.138;16.402;2022-08-19T10:37:51;30.10;96.60
12015;DHT22;6066;48.138;16.402;2022-08-19T10:40:18;29.80;96.40
12015;DHT22;6066;48.138;16.402;2022-08-19T10:42:46;29.50;97.00
12015;DHT22;6066;48.138;16.402;2022-08-19T10:45:13;29.40;97.00
12015;DHT22;6066;48.138;16.402;2022-08-19T10:47:40;29.30;97.00
12015;DHT22;6066;48.138;16.402;2022-08-19T10:50:06;29.30;97.30
12015;DHT22;6066;48.138;16.402;2022-08-19T10:52:51;29.20;97.90
12015;DHT22;6066;48.138;16.402;2022-08-19T10:55:18;29.10;99.20
12015;DHT22;6066;48.138;16.402;2022-08-19T10:58:06;28.80;98.90
12015;DHT22;6066;48.138;16.402;2022-08-19T11:00:35;28.60;99.30
12015;DHT22;6066;48.138;16.402;2022-08-19T11:03:02;28.40;99.30
12015;DHT22;6066;48.138;16.402;2022-08-19T11:05:29;28.20;99.30
12015;DHT22;6066;48.138;16.402;2022-08-19T11:07:55;27.90;99.90
12015;DHT22;6066;48.138;16.402;2022-08-19T11:10:22;27.40;99.90
12015;DHT22;6066;48.138;16.402;2022-08-19T11:12:49;26.70;99.90
12015;DHT22;6066;48.138;16.402;2022-08-19T11:15:19;26.10;99.90
12015;DHT22;6066;48.138;16.402;2022-08-19T11:17:46;25.60;99.90
12015;DHT22;6066;48.138;16.402;2022-08-19T11:20:14;25.40;99.90
12015;DHT22;6066;48.138;16.402;2022-08-19T11:22:41;25.40;99.90
12015;DHT22;6066;48.138;16.402;2022-08-19T11:25:08;25.50;99.90
12015;DHT22;6066;48.138;16.402;2022-08-19T11:27:37;25.70;99.90
12015;DHT22;6066;48.138;16.402;2022-08-19T11:30:05;26.10;99.90
12015;DHT22;6066;48.138;16.402;2022-08-19T11:32:34;26.80;99.90
12015;DHT22;6066;48.138;16.402;2022-08-19T11:35:01;27.60;99.90
12015;DHT22;6066;48.138;16.402;2022-08-19T11:37:27;28.20;99.90
12015;DHT22;6066;48.138;16.402;2022-08-19T11:39:54;28.90;99.90
12015;DHT22;6066;48.138;16.402;2022-08-19T11:42:21;29.40;99.90
12015;DHT22;6066;48.138;16.402;2022-08-19T11:45:06;29.60;99.90
12015;DHT22;6066;48.138;16.402;2022-08-19T11:47:34;29.50;99.90
12015;DHT22;6066;48.138;16.402;2022-08-19T11:50:02;29.60;99.90
12015;DHT22;6066;48.138;16.402;2022-08-19T11:52:29;29.80;99.90
12015;DHT22;6066;48.138;16.402;2022-08-19T11:54:56;30.20;99.70
12015;DHT22;6066;48.138;16.402;2022-08-19T11:57:24;30.60;99.60
12015;DHT22;6066;48.138;16.402;2022-08-19T11:59:51;30.80;99.20
12015;DHT22;6066;48.138;16.402;2022-08-19T12:02:18;31.20;98.20
12015;DHT22;6066;48.138;16.402;2022-08-19T12:04:49;31.30;98.30
12015;DHT22;6066;48.138;16.402;2022-08-19T12:07:16;31.20;98.70
12015;DHT22;6066;48.138;16.402;2022-08-19T12:09:42;30.90;99.30
12015;DHT22;6066;48.138;16.402;2022-08-19T12:12:11;30.60;99.10
12015;DHT22;6066;48.138;16.402;2022-08-19T12:14:38;30.30;98.70
12015;DHT22;6066;48.138;16.402;2022-08-19T12:17:05;30.00;99.50
12015;DHT22;6066;48.138;16.402;2022-08-19T12:19:35;29.80;99.90
12015;DHT22;6066;48.138;16.402;2022-08-19T12:22:03;30.00;99.90
12015;DHT22;6066;48.138;16.402;2022-08-19T12:24:31;30.40;99.90
12015;DHT22;6066;48.138;16.402;2022-08-19T12:26:59;30.90;99.90
12015;DHT22;6066;48.138;16.402;2022-08-19T12:29:27;31.20;98.70
12015;DHT22;6066;48.138;16.402;2022-08-19T12:31:54;31.30;98.70
12015;DHT22;6066;48.138;16.402;2022-08-19T12:34:25;31.10;98.60
12015;DHT22;6066;48.138;16.402;2022-08-19T12:36:55;30.80;98.80
12015;DHT22;6066;48.138;16.402;2022-08-19T12:39:24;30.40;98.50
12015;DHT22;6066;48.138;16.402;2022-08-19T12:41:51;30.00;99.30
12015;DHT22;6066;48.138;16.402;2022-08-19T12:44:18;29.60;99.20
12015;DHT22;6066;48.138;16.402;2022-08-19T12:46:44;29.10;99.60
12015;DHT22;6066;48.138;16.402;2022-08-19T12:49:11;28.90;99.90
12015;DHT22;6066;48.138;16.402;2022-08-19T12:51:38;28.60;99.90
12015;DHT22;6066;48.138;16.402;2022-08-19T12:54:04;28.40;99.90
12015;DHT22;6066;48.138;16.402;2022-08-19T12:56:33;28.30;99.90
12015;DHT22;6066;48.138;16.402;2022-08-19T12:59:00;28.20;99.90
12015;DHT22;6066;48.138;16.402;2022-08-19T13:01:27;28.20;99.90
12015;DHT22;6066;48.138;16.402;2022-08-19T13:03:58;28.20;99.90
12015;DHT22;6066;48.138;16.402;2022-08-19T13:06:24;28.20;99.90
12015;DHT22;6066;48.138;16.402;2022-08-19T13:08:51;28.20;99.90
12015;DHT22;6066;48.138;16.402;2022-08-19T13:11:19;28.20;99.90
12015;DHT22;6066;48.138;16.402;2022-08-19T13:13:50;28.10;99.90
12015;DHT22;6066;48.138;16.402;2022-08-19T13:16:17;28.00;99.90
12015;DHT22;6066;48.138;16.402;2022-08-19T13:18:46;28.00;99.90
12015;DHT22;6066;48.138;16.402;2022-08-19T13:21:13;27.90;99.90
12015;DHT22;6066;48.138;16.402;2022-08-19T13:23:40;27.90;99.90
12015;DHT22;6066;48.138;16.402;2022-08-19T13:26:08;27.80;99.90
12015;DHT22;6066;48.138;16.402;2022-08-19T13:28:35;27.70;99.90
12015;DHT22;6066;48.138;16.402;2022-08-19T13:31:24;27.70;99.90
12015;DHT22;6066;48.138;16.402;2022-08-19T13:34:09;27.70;99.90
12015;DHT22;6066;48.138;16.402;2022-08-19T13:36:36;27.50;99.90
12015;DHT22;6066;48.138;16.402;2022-08-19T13:39:04;27.30;99.90
12015;DHT22;6066;48.138;16.402;2022-08-19T13:41:31;27.00;99.90
12015;DHT22;6066;48.138;16.402;2022-08-19T13:43:59;26.70;99.90
12015;DHT22;6066;48.138;16.402;2022-08-19T13:46:29;26.40;99.90
12015;DHT22;6066;48.138;16.402;2022-08-19T13:48:56;26.00;99.90
12015;DHT22;6066;48.138;16.402;2022-08-19T13:51:23;25.90;99.90
12015;DHT22;6066;48.138;16.402;2022-08-19T13:53:50;25.80;99.90
12015;DHT22;6066;48.138;16.402;2022-08-19T13:56:17;25.90;99.90
12015;DHT22;6066;48.138;16.402;2022-08-19T13:58:45;25.90;99.90
12015;DHT22;6066;48.138;16.402;2022-08-19T14:01:11;26.00;99.90
12015;DHT22;6066;48.138;16.402;2022-08-19T14:03:41;26.10;99.90
12015;DHT22;6066;48.138;16.402;2022-08-19T14:06:09;26.10;99.90
12015;DHT22;6066;48.138;16.402;2022-08-19T14:08:36;26.20;99.90
12015;DHT22;6066;48.138;16.402;2022-08-19T14:11:04;26.40;99.90
12015;DHT22;6066;48.138;16.402;2022-08-19T14:13:31;26.50;99.90
12015;DHT22;6066;48.138;16.402;2022-08-19T14:15:59;26.80;99.90
12015;DHT22;6066;48.138;16.402;2022-08-19T14:18:25;27.00;99.90
12015;DHT22;6066;48.138;16.402;2022-08-19T14:20:53;27.20;99.90
12015;DHT22;6066;48.138;16.402;2022-08-19T14:23:21;27.50;99.90
12015;DHT22;6066;48.138;16.402;2022-08-19T14:25:48;27.80;99.90
12015;DHT22;6066;48.138;16.402;2022-08-19T14:28:14;28.00;99.90
12015;DHT22;6066;48.138;16.402;2022-08-19T14:30:42;28.10;99.90
12015;DHT22;6066;48.138;16.402;2022-08-19T14:33:09;28.30;99.90
12015;DHT22;6066;48.138;16.402;2022-08-19T14:35:37;28.40;99.90
12015;DHT22;6066;48.138;16.402;2022-08-19T14:38:14;28.50;99.90
12015;DHT22;6066;48.138;16.402;2022-08-19T14:40:41;28.40;99.90
12015;DHT22;6066;48.138;16.402;2022-08-19T14:43:07;28.10;99.90
12015;DHT22;6066;48.138;16.402;2022-08-19T14:45:35;28.00;99.90
12015;DHT22;6066;48.138;16.402;2022-08-19T14:48:02;27.90;99.90
12015;DHT22;6066;48.138;16.402;2022-08-19T14:50:28;27.90;99.90
12015;DHT22;6066;48.138;16.402;2022-08-19T14:52:58;27.80;99.90
12015;DHT22;6066;48.138;16.402;2022-08-19T14:55:27;27.70;99.90
12015;DHT22;6066;48.138;16.402;2022-08-19T14:57:54;27.80;99.90
12015;DHT22;6066;48.138;16.402;2022-08-19T15:00:21;27.80;99.90
12015;DHT22;6066;48.138;16.402;2022-08-19T15:02:48;27.80;99.90
12015;DHT22;6066;48.138;16.402;2022-08-19T15:05:15;27.90;99.90
12015;DHT22;6066;48.138;16.402;2022-08-19T15:07:42;27.90;99.90
12015;DHT22;6066;48.138;16.402;2022-08-19T15:10:10;28.00;99.90
12015;DHT22;6066;48.138;16.402;2022-08-19T15:12:38;28.10;99.90
12015;DHT22;6066;48.138;16.402;2022-08-19T15:15:06;28.10;99.90
12015;DHT22;6066;48.138;16.402;2022-08-19T15:17:33;28.20;99.80
12015;DHT22;6066;48.138;16.402;2022-08-19T15:20:03;28.20;99.80
12015;DHT22;6066;48.138;16.402;2022-08-19T15:22:30;28.30;99.90
12015;DHT22;6066;48.138;16.402;2022-08-19T15:24:57;28.30;99.60
12015;DHT22;6066;48.138;16.402;2022-08-19T15:27:23;28.30;99.70
12015;DHT22;6066;48.138;16.402;2022-08-19T15:29:52;28.20;99.80
12015;DHT22;6066;48.138;16.402;2022-08-19T15:32:20;28.00;99.90
12015;DHT22;6066;48.138;16.402;2022-08-19T15:34:46;27.90;99.90
12015;DHT22;6066;48.138;16.402;2022-08-19T15:37:14;27.70;99.90